CLASSIFICATION TEAM 20km TT
home
    idracetypedateroutekmelevation (m)Pos.PETTORALEFamily NameNamescoregenderteamNAZIONALITACATEGORIAPOSIZIONECATTimeReal
    time
    Average
    km/hr
    RW20km TTTT09/11/2018unic20,0020,0011AljarallahOmar200MRWSaudiOpen Male1/2500:30:3900:30:3939,70
    RW20km TTTT09/11/2018unic20,0020,002200AlDeyabiAbdullahMRWSaudiOpen Male2/2500:31:2900:31:2938,60
    RW20km TTTT09/11/2018unic20,0020,003214AlMuusawiHussamMRWSaudiOpen Male3/2500:31:2900:31:2938,60
    RW20km TTTT09/11/2018unic20,0020,0044KubaJiri199MRWGermanSenior Male1/300:31:3600:31:3638,50
    RW20km TTTT09/11/2018unic20,0020,005110BakerJosh198MRWBritishOpen Male4/2500:31:4400:31:4438,30
    RW20km TTTT09/11/2018unic20,0020,006212MohamadBilalMRWSyrianOpen Male5/2500:31:4600:31:4638,30
    RW20km TTTT09/11/2018unic20,0020,0075von SkwarczinskyClemens197MRWGermanVeteran Male1/1900:32:3500:32:3537,30
    RW20km TTTT09/11/2018unic20,0020,008104AlMutairiSultan196MRWSaudiOpen Male6/2500:32:3500:32:3537,30
    RW20km TTTT09/11/2018unic20,0020,00944AlKhuwaiterRayan195MRWSaudiOpen Male7/2500:32:4000:32:4037,20
    RW20km TTTT09/11/2018unic20,0020,001090KutbiMohammed194MRWSaudiOpen Male8/2500:32:5100:32:5137,00
    RW20km TTTT09/11/2018unic20,0020,001159BallMartin193MRWBritishMaster Male1/800:32:5200:32:5237,00
    RW20km TTTT09/11/2018unic20,0020,001217PinanoAlfie192MRWFilipinoOpen Male9/2500:33:0600:33:0636,70
    RW20km TTTT09/11/2018unic20,0020,001380ArafahAshraf191MRWSaudiOpen Male10/2500:33:1900:33:1936,50
    RW20km TTTT09/11/2018unic20,0020,001493ForeroYezith190MRWColombianVeteran Male2/1900:33:2500:33:2536,40
    RW20km TTTT09/11/2018unic20,0020,00153Bin FayizAbdallah189MRWSaudiOpen Male11/2500:34:0600:34:0635,70
    RW20km TTTT09/11/2018unic20,0020,001640JazaeriYamen188MRWSyrianOpen Male12/2500:34:0700:34:0735,70
    RW20km TTTT09/11/2018unic20,0020,001724GankemaJeroen187MRWNetherlandsVeteran Male3/1900:34:0900:34:0935,60
    RW20km TTTT09/11/2018unic20,0020,0018111AlvesCarlos186MRWAustralianVeteran Male4/1900:34:3000:34:3035,30
    RW20km TTTT09/11/2018unic20,0020,001938TubangJulieto185MRWFilipinoMaster Male2/800:34:4200:34:4235,00
    RW20km TTTT09/11/2018unic20,0020,0020204AlNajjmRaedMRWPalestineOpen Male13/2500:34:5700:34:5734,80
    RW20km TTTT09/11/2018unic20,0020,00219WaightScott184MRWNew ZealandVeteran Male5/1900:34:5900:34:5934,80
    RW20km TTTT09/11/2018unic20,0020,00227SolimanPercival Jr183MRWFilipinoVeteran Male6/1900:35:0400:35:0434,70
    RW20km TTTT09/11/2018unic20,0020,002335AlAayedKhalid182MRWSaudiOpen Male14/2500:35:0700:35:0734,60
    RW20km TTTT09/11/2018unic20,0020,002415AlBabtainAnas181MRWSaudiVeteran Male7/1900:35:1900:35:1934,40
    RW20km TTTT09/11/2018unic20,0020,0025205RoetterJeffMRWAmericanMaster Male3/800:35:2600:35:2634,30
    RW20km TTTT09/11/2018unic20,0020,002669DetomalBernard180MRWFilipinoVeteran Male8/1900:35:5000:35:5033,90
    RW20km TTTT09/11/2018unic20,0020,002745PelletierJason179MRWAmericanVeteran Male9/1900:36:0700:36:0733,70
    RW20km TTTT09/11/2018unic20,0020,002846CaceresMarvin178MRWFilipinoVeteran Male10/1900:36:1100:36:1133,60
    RW20km TTTT09/11/2018unic20,0020,002923CalagoErwin177MRWFilipinoVeteran Male11/1900:36:2000:36:2033,50
    RW20km TTTT09/11/2018unic20,0020,0030206AlSaifMohammedMRWSaudiOpen Male15/2500:36:2700:36:2733,40
    RW20km TTTT09/11/2018unic20,0020,003126KootPaul176MRWNetherlandsOpen Male16/2500:36:5200:36:5233,00
    RW20km TTTT09/11/2018unic20,0020,0032210AlSubaieFaisalMRWSaudiOpen Male17/2500:37:0700:37:0732,80
    RW20km TTTT09/11/2018unic20,0020,0033203AlGhashamMohammedMRWSaudiOpen Male18/2500:37:1300:37:1332,70
    RW20km TTTT09/11/2018unic20,0020,003441TolentinoWilliam175MRWFilipinoMaster Male4/800:37:2000:37:2032,60
    RW20km TTTT09/11/2018unic20,0020,0035201SantosRurik IanMRWFilipinoVeteran Male12/1900:37:2100:37:2132,60
    RW20km TTTT09/11/2018unic20,0020,003639AltavasJose Cortes174MRWFilipinoVeteran Male13/1900:37:3100:37:3132,40
    RW20km TTTT09/11/2018unic20,0020,0037207AlSulhiAliMRWSaudiOpen Male19/2500:37:4000:37:4032,30
    RW20km TTTT09/11/2018unic20,0020,003811AlMuayqilAbdulmajeed173MRWSaudiOpen Male20/2500:37:4100:37:4132,30
    RW20km TTTT09/11/2018unic20,0020,003937LandoEdoardo172MRWItalianSenior Male2/300:37:4900:37:4932,20
    RW20km TTTT09/11/2018unic20,0020,004055Suarez FernandezAntonio171MRWSpanishVeteran Male14/1900:38:0900:38:0931,90
    RW20km TTTT09/11/2018unic20,0020,0041117CordialJun170MRWFilipinoVeteran Male15/1900:38:3000:38:3031,60
    RW20km TTTT09/11/2018unic20,0020,004282ManicdaoAriel169MRWFilipinoVeteran Male16/1900:39:1100:39:1131,00
    RW20km TTTT09/11/2018unic20,0020,0043116CordialNico Andrei200MRWFilipinoJunior Male100:39:2600:39:2630,80
    RW20km TTTT09/11/2018unic20,0020,004471MendozaRichard168MRWFilipinoVeteran Male17/1900:39:5000:39:5030,50
    RW20km TTTT09/11/2018unic20,0020,0045120AlTuwaijriNezar167MRWSaudiOpen Male21/2500:39:5500:39:5530,50
    RW20km TTTT09/11/2018unic20,0020,004628EllaBenedict166MRWFilipinoMaster Male5/800:40:2900:40:2930,00
    RW20km TTTT09/11/2018unic20,0020,0047100AraujoMaria200FRWItalianMaster Female1/200:40:3200:40:3230,00
    RW20km TTTT09/11/2018unic20,0020,004881JavierJessie165MRWFilipinoMaster Male6/800:40:5500:40:5529,70
    RW20km TTTT09/11/2018unic20,0020,0049209AlMosalmMuaazMRWSaudiOpen Male22/2500:41:0800:41:0829,60
    RW20km TTTT09/11/2018unic20,0020,005053FerreiraCaroline199FRWBrazilianOpen Female100:41:0900:41:0929,60
    RW20km TTTT09/11/2018unic20,0020,0051213KurekIsmailMRWBritishOpen Male23/2500:41:2200:41:2229,40
    RW20km TTTT09/11/2018unic20,0020,005262CrepaldiGustavo164MRWBrazilianVeteran Male18/1900:42:5900:42:5928,30
    RW20km TTTT09/11/2018unic20,0020,005394MahfouzTalal163MRWFrenchSenior Male3/300:46:3300:46:3326,10
    RW20km TTTT09/11/2018unic20,0020,005488AbreuMarcus162MRWBrazilianMaster Male7/800:46:4500:46:4526,00
    RW20km TTTT09/11/2018unic20,0020,005543SatputeSanjay161MRWIndianOpen Male24/2500:46:5700:46:5725,90
    RW20km TTTT09/11/2018unic20,0020,005654AlsarhaniAbdullah160MRWSaudiMaster Male8/800:47:2900:47:2925,60
    RW20km TTTT09/11/2018unic20,0020,0057102LandoFederica200FRWItalianJunior Female1/200:48:1600:48:1625,20
    RW20km TTTT09/11/2018unic20,0020,005896ALShamekhAbdullah159MRWSaudiVeteran Male19/1900:48:4200:48:4225,00
    RW20km TTTT09/11/2018unic20,0020,005992MendozaLani198FRWFilipinoMaster Female2/200:52:0700:52:0723,30
    RW20km TTTT09/11/2018unic20,0020,0060101LandoAlexandra199FRWItalianJunior Female2/200:54:4500:54:4522,20
    RW20km TTTT09/11/2018unic20,0020,0061211SaudMasharyMRWSaudiOpen Male25/2500:58:0500:58:0520,90
    idracetypedateroute1.220,00
    km
    1220
    dislivello
    61
    n
    BIDFamily NameNamescoregenderteamNationalityCategoryPos.Cat.TimeReal
    time
    Average
    km/hr
Aljarallah OmarKuba JiriBaker Joshvon Skwarczinsky ClemensArafah AshrafForero YezithBin Fayiz AbdallahGankema JeroenAlves CarlosWaight ScottSoliman Percival JrRoetter JeffDetomal BernardCaceres MarvinCalago ErwinTolentino WilliamSantos Rurik IanAltavas Jose CortesLando EdoardoSuarez Fernandez Antonio
Cordial JunCordial Nico AndreiMendoza RichardElla BenedictAraujo MariaJavier JessieMahfouz TalalSatpute SanjayAlsarhani AbdullahLando FedericaLando Alexandra

20km TT Athletes TEAM (first 200)

FIND ATHLETES races saved
find results also athletes others team
Fam.Name: Name:
rem: to insert Family name (It is simply a part of word)

FIND TEAM Races saved
You can find the result of others team
TEAM: RACE: ROUTE:
rem: to insert one team (It is simply a part of word)


home